Time;durP1;ratioP1;P1;durP2;ratioP2;P2;SDS_P1;SDS_P2;PMS_P1;PMS_P2;Temp;Humidity;BMP_temperature;BMP_pressure;BME280_temperature;BME280_humidity;BME280_pressure;Samples;Min_cycle;Max_cycle;Signal;HPM_P1;HPM_P2
2022/01/21 00:01:17;;;;;;;25.40;4.22;;;2.60;99.90;;;;;;5025085;28;20046;-68
2022/01/21 00:03:43;;;;;;;36.35;4.45;;;2.70;99.90;;;;;;5042477;28;20148;-68
2022/01/21 00:06:09;;;;;;;15.93;3.65;;;2.70;99.90;;;;;;5044939;28;20037;-69
2022/01/21 00:08:39;;;;;;;20.35;3.75;;;2.80;99.90;;;;;;5025714;28;20061;-69
2022/01/21 00:11:05;;;;;;;24.88;3.83;;;2.90;99.90;;;;;;5043685;28;20041;-67
2022/01/21 00:13:35;;;;;;;24.63;3.88;;;3.00;99.90;;;;;;5043306;28;20119;-66
2022/01/21 00:16:12;;;;;;;25.35;3.50;;;2.90;99.90;;;;;;5039255;28;20075;-66
2022/01/21 00:18:42;;;;;;;18.58;2.80;;;2.90;99.90;;;;;;5043932;28;20053;-66
2022/01/21 00:32:08;;;;;;;6.50;1.50;;;2.70;99.90;;;;;;5039934;28;20085;-66
2022/01/21 00:34:35;;;;;;;4.68;1.70;;;2.60;99.90;;;;;;5038044;28;20101;-66
2022/01/21 00:37:01;;;;;;;5.10;1.98;;;2.60;99.90;;;;;;5042879;28;20163;-66
2022/01/21 00:39:30;;;;;;;6.15;1.90;;;2.70;99.90;;;;;;5043733;28;20516;-67
2022/01/21 00:44:25;;;;;;;9.43;2.65;;;2.60;99.90;;;;;;5044011;28;20060;-66
2022/01/21 00:46:50;;;;;;;9.85;2.22;;;2.60;99.90;;;;;;5042628;28;20041;-67
2022/01/21 00:49:16;;;;;;;7.63;2.10;;;2.50;99.90;;;;;;5042341;28;20055;-67
2022/01/21 00:51:42;;;;;;;13.70;2.58;;;2.50;99.90;;;;;;5043731;28;20810;-67
2022/01/21 00:54:08;;;;;;;12.77;2.78;;;2.40;99.90;;;;;;5043373;28;20057;-67
2022/01/21 00:56:34;;;;;;;18.60;2.90;;;2.40;99.90;;;;;;5043471;28;20038;-67
2022/01/21 00:59:00;;;;;;;17.83;2.27;;;2.40;99.90;;;;;;5044187;28;20072;-67
2022/01/21 01:01:25;;;;;;;12.15;2.53;;;2.30;99.90;;;;;;5047125;28;20157;-67
2022/01/21 01:03:51;;;;;;;11.23;3.07;;;2.30;99.90;;;;;;5042136;28;20059;-68
2022/01/21 01:06:17;;;;;;;13.13;2.37;;;2.30;99.90;;;;;;5041417;28;20178;-66
2022/01/21 01:08:43;;;;;;;8.15;2.50;;;2.30;99.90;;;;;;5041830;28;20132;-67
2022/01/21 01:21:31;;;;;;;16.52;3.38;;;2.40;99.90;;;;;;5041850;28;20389;-67
2022/01/21 01:29:22;;;;;;;18.17;3.53;;;2.50;99.90;;;;;;5041680;28;20055;-67
2022/01/21 01:31:50;;;;;;;16.98;3.53;;;2.50;99.90;;;;;;5038299;28;20049;-67
2022/01/21 01:34:16;;;;;;;16.95;2.90;;;2.50;99.90;;;;;;5040912;28;20113;-67
2022/01/21 01:36:44;;;;;;;13.38;2.92;;;2.50;99.90;;;;;;5041223;28;20037;-67
2022/01/21 01:39:28;;;;;;;16.13;3.08;;;2.50;99.90;;;;;;5041215;28;20053;-67
2022/01/21 01:42:50;;;;;;;21.33;3.20;;;2.40;99.90;;;;;;5041049;28;20060;-67
2022/01/21 01:50:48;;;;;;;12.15;2.95;;;2.20;99.90;;;;;;5038655;28;20080;-67
2022/01/21 01:53:14;;;;;;;;;;;2.30;99.90;;;;;;5041463;28;20144;-67
2022/01/21 01:55:40;;;;;;;20.42;3.20;;;2.20;99.90;;;;;;5042461;28;19939;-67
2022/01/21 01:58:06;;;;;;;17.55;3.30;;;2.30;99.90;;;;;;5040896;28;20460;-67
2022/01/21 02:00:32;;;;;;;16.08;3.70;;;2.30;99.90;;;;;;5042749;28;20048;-65
2022/01/21 02:03:06;;;;;;;14.20;2.90;;;2.40;99.90;;;;;;5041368;28;20045;-65
2022/01/21 02:05:32;;;;;;;15.20;2.65;;;2.40;99.90;;;;;;5039621;28;20045;-65
2022/01/21 02:07:58;;;;;;;14.98;2.30;;;2.40;99.90;;;;;;5040097;28;20049;-66
2022/01/21 02:10:23;;;;;;;7.40;1.90;;;2.30;99.90;;;;;;5042025;28;20195;-65
2022/01/21 02:12:50;;;;;;;8.00;1.83;;;2.30;99.90;;;;;;5040755;28;20303;-66
2022/01/21 02:15:16;;;;;;;9.05;2.45;;;2.20;99.90;;;;;;5042290;28;20296;-66
2022/01/21 02:22:52;;;;;;;13.43;1.80;;;2.00;99.90;;;;;;5040704;28;20060;-66
2022/01/21 02:25:19;;;;;;;8.20;2.10;;;2.00;99.90;;;;;;5040562;28;20097;-66
2022/01/21 02:27:59;;;;;;;8.32;1.73;;;2.00;99.90;;;;;;5041688;28;20049;-66
2022/01/21 02:30:25;;;;;;;11.13;2.38;;;1.90;99.90;;;;;;5042152;28;20053;-67
2022/01/21 02:32:52;;;;;;;;;;;1.90;99.90;;;;;;5040914;28;20041;-66
2022/01/21 02:35:19;;;;;;;12.13;1.98;;;1.90;99.90;;;;;;5057276;28;19928;-66
2022/01/21 02:37:46;;;;;;;11.75;2.80;;;1.90;99.90;;;;;;5040015;28;20114;-67
2022/01/21 02:40:13;;;;;;;12.52;2.55;;;1.80;99.90;;;;;;5023946;28;20049;-67
2022/01/21 02:42:39;;;;;;;12.15;2.05;;;1.90;99.90;;;;;;5041891;28;20380;-66
2022/01/21 02:45:07;;;;;;;18.27;2.85;;;1.80;99.90;;;;;;5040270;28;20053;-67
2022/01/21 02:47:33;;;;;;;14.57;2.42;;;1.80;99.90;;;;;;5026333;28;20098;-66
2022/01/21 02:49:58;;;;;;;13.83;2.50;;;1.80;99.90;;;;;;5038519;28;20053;-67
2022/01/21 02:52:28;;;;;;;22.30;2.87;;;1.90;99.90;;;;;;5044284;28;20300;-66
2022/01/21 02:54:54;;;;;;;15.45;2.72;;;1.90;99.90;;;;;;5044489;28;20061;-66
2022/01/21 02:57:20;;;;;;;9.80;2.20;;;2.00;99.90;;;;;;5045100;28;20521;-67
2022/01/21 02:59:45;;;;;;;11.13;2.28;;;2.10;99.90;;;;;;5044691;28;20053;-67
2022/01/21 03:02:12;;;;;;;10.05;2.08;;;2.10;99.90;;;;;;5060460;28;20083;-66
2022/01/21 03:05:14;;;;;;;10.70;2.20;;;2.10;99.90;;;;;;5044168;28;20111;-68
2022/01/21 03:07:30;;;;;;;7.07;2.10;;;2.20;99.90;;;;;;5042505;28;20053;-67
2022/01/21 03:09:56;;;;;;;6.90;2.00;;;2.10;99.90;;;;;;5045022;28;20475;-68
2022/01/21 03:12:21;;;;;;;12.53;2.00;;;2.20;99.90;;;;;;5045449;28;20076;-67
2022/01/21 03:14:48;;;;;;;10.03;1.63;;;2.20;99.90;;;;;;5045434;28;20094;-67
2022/01/21 03:17:13;;;;;;;7.45;1.52;;;2.20;99.90;;;;;;5043560;28;20371;-67
2022/01/21 03:19:39;;;;;;;4.40;1.43;;;2.20;99.90;;;;;;5045678;28;20049;-67
2022/01/21 03:22:05;;;;;;;7.60;1.73;;;2.20;99.90;;;;;;5045408;28;20053;-67
2022/01/21 03:24:31;;;;;;;10.05;2.00;;;2.20;99.90;;;;;;5044946;28;20047;-67
2022/01/21 03:26:57;;;;;;;8.68;1.80;;;2.30;99.90;;;;;;5043750;28;20413;-67
2022/01/21 03:29:22;;;;;;;8.30;1.90;;;2.30;99.90;;;;;;5045270;28;20084;-67
2022/01/21 03:31:48;;;;;;;10.63;1.80;;;2.30;99.90;;;;;;5043812;28;20300;-67
2022/01/21 03:34:14;;;;;;;7.32;1.80;;;2.30;99.90;;;;;;5045165;28;20037;-67
2022/01/21 03:36:40;;;;;;;9.97;2.17;;;2.40;99.90;;;;;;5043658;28;20045;-67
2022/01/21 03:39:07;;;;;;;9.98;1.92;;;2.30;99.90;;;;;;5043738;28;20291;-67
2022/01/21 03:41:32;;;;;;;;;;;2.30;99.90;;;;;;5045350;28;20060;-67
2022/01/21 03:43:58;;;;;;;5.13;1.77;;;2.30;99.90;;;;;;5045082;28;19921;-67
2022/01/21 03:46:24;;;;;;;11.18;2.10;;;2.30;99.90;;;;;;5044845;28;20041;-67
2022/01/21 03:48:50;;;;;;;7.60;1.90;;;2.20;99.90;;;;;;5043204;28;20176;-67
2022/01/21 03:51:19;;;;;;;8.80;1.83;;;2.20;99.90;;;;;;5043456;28;20045;-67
2022/01/21 03:53:46;;;;;;;8.57;2.03;;;2.20;99.90;;;;;;5044710;28;20045;-67
2022/01/21 03:56:13;;;;;;;11.73;2.85;;;2.10;99.90;;;;;;5043245;28;20110;-67
2022/01/21 03:58:39;;;;;;;5.57;1.75;;;2.10;99.90;;;;;;5043795;28;20046;-67
2022/01/21 04:01:05;;;;;;;13.95;2.20;;;2.00;99.90;;;;;;5043467;28;20103;-67
2022/01/21 04:03:30;;;;;;;14.10;2.40;;;2.00;99.90;;;;;;5042965;28;20046;-67
2022/01/21 04:05:56;;;;;;;11.57;2.40;;;1.90;99.90;;;;;;5043530;28;20049;-67
2022/01/21 04:08:22;;;;;;;7.37;2.20;;;1.90;99.90;;;;;;5043568;28;20397;-67
2022/01/21 04:10:48;;;;;;;19.20;3.63;;;1.90;99.90;;;;;;5042633;28;20065;-67
2022/01/21 04:13:16;;;;;;;16.00;2.53;;;1.90;99.90;;;;;;5042905;28;20045;-68
2022/01/21 04:15:44;;;;;;;13.75;2.90;;;2.00;99.90;;;;;;5043343;28;20049;-67
2022/01/21 04:18:11;;;;;;;10.13;2.40;;;2.00;99.90;;;;;;5026138;28;20064;-67
2022/01/21 04:20:37;;;;;;;18.05;4.03;;;2.00;99.90;;;;;;5042995;28;20085;-67
2022/01/21 04:23:03;;;;;;;16.40;3.00;;;2.00;99.90;;;;;;5042263;28;20107;-67
2022/01/21 04:25:29;;;;;;;22.50;2.75;;;2.00;99.90;;;;;;5043059;28;20080;-67
2022/01/21 04:27:55;;;;;;;14.07;2.07;;;1.90;99.90;;;;;;5043645;28;20089;-67
2022/01/21 04:30:21;;;;;;;14.05;2.13;;;1.90;99.90;;;;;;5042717;28;20104;-67
2022/01/21 04:32:46;;;;;;;10.77;2.05;;;1.80;99.90;;;;;;5049263;28;20045;-67
2022/01/21 04:35:12;;;;;;;11.43;2.80;;;1.80;99.90;;;;;;5036584;28;20480;-67
2022/01/21 04:37:44;;;;;;;13.53;2.30;;;1.70;99.90;;;;;;5043808;28;20122;-67
2022/01/21 04:40:14;;;;;;;11.85;2.55;;;1.70;99.90;;;;;;5042510;28;20292;-67
2022/01/21 04:48:08;;;;;;;20.30;3.97;;;1.60;99.90;;;;;;5041592;28;20053;-67
2022/01/21 04:50:53;;;;;;;20.38;3.75;;;1.50;99.90;;;;;;5043874;28;20128;-67
2022/01/21 04:53:19;;;;;;;22.33;3.03;;;1.50;99.90;;;;;;5041986;28;20045;-67
2022/01/21 04:55:45;;;;;;;28.08;3.92;;;1.50;99.90;;;;;;5042483;28;20427;-66
2022/01/21 04:58:11;;;;;;;17.65;3.28;;;1.60;99.90;;;;;;5041940;28;20045;-67
2022/01/21 05:00:37;;;;;;;14.25;2.92;;;1.60;99.90;;;;;;5042033;28;20053;-67
2022/01/21 05:03:02;;;;;;;15.20;2.73;;;1.70;99.90;;;;;;5042162;28;20472;-67
2022/01/21 05:05:29;;;;;;;19.20;3.17;;;1.70;99.90;;;;;;5030210;28;20038;-67
2022/01/21 05:07:55;;;;;;;15.20;3.30;;;1.80;99.90;;;;;;5028364;28;20064;-67
2022/01/21 05:10:24;;;;;;;;;;;1.80;99.90;;;;;;5042977;28;20053;-67
2022/01/21 05:12:49;;;;;;;14.32;2.47;;;1.80;99.90;;;;;;5042953;28;19921;-67
2022/01/21 05:15:26;;;;;;;16.33;2.57;;;1.80;99.90;;;;;;5043652;28;20090;-67
2022/01/21 05:17:52;;;;;;;14.60;2.72;;;1.90;99.90;;;;;;5043275;28;20080;-67
2022/01/21 05:20:18;;;;;;;15.07;2.70;;;2.00;99.90;;;;;;5041864;28;20042;-67
2022/01/21 05:22:44;;;;;;;11.45;2.35;;;2.00;99.90;;;;;;5041934;28;20292;-67
2022/01/21 05:25:16;;;;;;;16.40;2.70;;;2.10;99.90;;;;;;5025145;28;20053;-67
2022/01/21 05:27:47;;;;;;;22.25;3.90;;;2.10;99.90;;;;;;5038104;28;20097;-67
2022/01/21 05:30:15;;;;;;;19.42;3.50;;;2.10;99.90;;;;;;5042937;28;20045;-67
2022/01/21 05:32:40;;;;;;;15.45;2.70;;;2.10;99.90;;;;;;5041967;28;20060;-67
2022/01/21 05:35:07;;;;;;;15.87;2.33;;;2.10;99.90;;;;;;5041507;28;20477;-67
2022/01/21 05:37:34;;;;;;;15.63;3.17;;;2.20;99.90;;;;;;5041491;28;20053;-67
2022/01/21 05:40:00;;;;;;;;;;;2.10;99.90;;;;;;5041329;28;20076;-67
2022/01/21 05:42:25;;;;;;;13.18;2.75;;;2.10;99.90;;;;;;5041586;28;19916;-67
2022/01/21 05:47:17;;;;;;;16.90;3.40;;;2.10;99.90;;;;;;5041562;28;20136;-67
2022/01/21 05:49:43;;;;;;;15.23;2.57;;;2.20;99.90;;;;;;5040688;28;20049;-67
2022/01/21 05:52:51;;;;;;;13.88;2.50;;;2.20;99.90;;;;;;5041499;28;20065;-67
2022/01/21 05:54:57;;;;;;;13.27;2.83;;;2.20;99.90;;;;;;5040359;28;20069;-67
2022/01/21 05:57:23;;;;;;;14.73;2.67;;;2.20;99.90;;;;;;5041618;28;20132;-66
2022/01/21 05:59:49;;;;;;;10.83;2.50;;;2.30;99.90;;;;;;5041162;28;20045;-65
2022/01/21 06:02:16;;;;;;;13.63;2.55;;;2.30;99.90;;;;;;5040996;28;20053;-66
2022/01/21 06:04:44;;;;;;;15.38;3.20;;;2.40;99.90;;;;;;5041030;28;20045;-66
2022/01/21 06:07:10;;;;;;;13.82;3.00;;;2.40;99.90;;;;;;5042794;28;20077;-66
2022/01/21 06:09:37;;;;;;;11.18;2.40;;;2.40;99.90;;;;;;5049039;28;20065;-66
2022/01/21 06:12:06;;;;;;;16.75;2.80;;;2.40;99.90;;;;;;5042405;28;20055;-67
2022/01/21 06:14:32;;;;;;;15.65;3.03;;;2.30;99.90;;;;;;5042159;28;20045;-67
2022/01/21 06:16:58;;;;;;;22.13;3.73;;;2.30;99.90;;;;;;5042772;28;20046;-67
2022/01/21 06:19:23;;;;;;;18.93;3.40;;;2.30;99.90;;;;;;5040863;28;20080;-67
2022/01/21 06:21:49;;;;;;;16.47;3.07;;;2.30;99.90;;;;;;5040899;28;20072;-67
2022/01/21 06:24:15;;;;;;;24.10;2.80;;;2.30;99.90;;;;;;5042527;28;20045;-67
2022/01/21 06:26:40;;;;;;;14.37;3.23;;;2.30;99.90;;;;;;5043533;28;20041;-67
2022/01/21 06:29:06;;;;;;;17.48;3.30;;;2.40;99.90;;;;;;5024395;28;20441;-67
2022/01/21 06:31:33;;;;;;;17.77;3.50;;;2.40;99.90;;;;;;5041603;28;20053;-67
2022/01/21 06:33:59;;;;;;;19.00;2.50;;;2.50;99.90;;;;;;5042360;28;20100;-67
2022/01/21 06:36:25;;;;;;;18.40;2.60;;;2.50;99.90;;;;;;5042980;28;20046;-67
2022/01/21 06:38:51;;;;;;;14.70;2.83;;;2.50;99.90;;;;;;5040537;28;20299;-67
2022/01/21 06:41:17;;;;;;;14.57;2.47;;;2.40;99.90;;;;;;5040919;28;20049;-67
2022/01/21 06:43:43;;;;;;;14.13;2.70;;;2.50;99.90;;;;;;5040755;28;20381;-67
2022/01/21 06:46:10;;;;;;;15.57;3.35;;;2.40;99.90;;;;;;5023273;28;20308;-67
2022/01/21 06:48:36;;;;;;;15.75;2.92;;;2.40;99.90;;;;;;5041054;28;20049;-67
2022/01/21 06:51:02;;;;;;;28.52;3.03;;;2.40;99.90;;;;;;5040411;28;20057;-67
2022/01/21 06:53:28;;;;;;;16.50;3.17;;;2.40;99.90;;;;;;5040168;28;20056;-67
2022/01/21 06:55:54;;;;;;;16.97;2.33;;;2.40;99.90;;;;;;5040924;28;20098;-67
2022/01/21 06:58:20;;;;;;;16.40;2.65;;;2.30;99.90;;;;;;5040602;28;20300;-67
2022/01/21 07:00:45;;;;;;;11.25;2.55;;;2.20;99.90;;;;;;5040690;28;20057;-67
2022/01/21 07:03:11;;;;;;;18.43;2.83;;;2.20;99.90;;;;;;5040778;28;20106;-67
2022/01/21 07:05:37;;;;;;;14.77;2.43;;;2.20;99.90;;;;;;5029102;28;20446;-67
2022/01/21 07:08:04;;;;;;;17.13;3.05;;;2.10;99.90;;;;;;5032700;28;20469;-67
2022/01/21 07:10:30;;;;;;;11.18;2.83;;;2.00;99.90;;;;;;5040510;28;20058;-67
2022/01/21 07:12:57;;;;;;;13.35;3.05;;;2.00;99.90;;;;;;5040875;28;20041;-67
2022/01/21 07:15:23;;;;;;;14.15;2.95;;;1.90;99.90;;;;;;5043259;28;20068;-69
2022/01/21 07:17:52;;;;;;;18.08;3.53;;;1.90;99.90;;;;;;5040391;28;20493;-65
2022/01/21 07:20:18;;;;;;;13.70;3.30;;;1.90;99.90;;;;;;5040838;28;20053;-63
2022/01/21 07:22:44;;;;;;;13.60;2.63;;;1.90;99.90;;;;;;5039506;28;20149;-63
2022/01/21 07:25:10;;;;;;;14.95;3.00;;;1.90;99.90;;;;;;5040686;28;20088;-66
2022/01/21 07:27:36;;;;;;;22.13;3.38;;;1.90;99.90;;;;;;5041509;28;20083;-65
2022/01/21 07:30:04;;;;;;;21.55;3.30;;;1.90;99.90;;;;;;5041333;28;20121;-66
2022/01/21 07:32:30;;;;;;;12.15;2.70;;;1.90;99.90;;;;;;5041453;28;20056;-67
2022/01/21 07:34:55;;;;;;;18.83;3.30;;;1.90;99.90;;;;;;5043983;28;20041;-65
2022/01/21 07:37:22;;;;;;;20.38;3.22;;;2.00;99.90;;;;;;5043871;28;20304;-66
2022/01/21 07:39:47;;;;;;;25.50;3.30;;;2.00;99.90;;;;;;5045124;28;20824;-65
2022/01/21 07:42:13;;;;;;;24.97;4.50;;;2.00;99.90;;;;;;5045447;28;20105;-68
2022/01/21 07:44:39;;;;;;;19.60;3.53;;;2.10;99.90;;;;;;5045152;28;20356;-65
2022/01/21 07:47:05;;;;;;;16.20;3.65;;;2.20;99.90;;;;;;5045050;28;20060;-65
2022/01/21 07:49:31;;;;;;;24.80;3.78;;;2.20;99.90;;;;;;5043496;28;20057;-68
2022/01/21 07:51:57;;;;;;;;;;;2.20;99.90;;;;;;5043775;28;20053;-67
2022/01/21 07:54:23;;;;;;;26.50;3.75;;;2.20;99.90;;;;;;5043485;28;19925;-67
2022/01/21 07:56:49;;;;;;;19.87;3.27;;;2.20;99.90;;;;;;5045027;28;20046;-65
2022/01/21 07:59:16;;;;;;;16.30;3.47;;;2.20;99.90;;;;;;5043036;28;20288;-65
2022/01/21 08:01:42;;;;;;;26.30;3.75;;;2.20;99.90;;;;;;5043601;28;20056;-66
2022/01/21 08:04:08;;;;;;;18.70;3.42;;;2.30;99.90;;;;;;5044014;28;20037;-66
2022/01/21 08:06:34;;;;;;;19.25;4.55;;;2.30;99.90;;;;;;5043920;28;20049;-65
2022/01/21 08:09:00;;;;;;;20.60;4.03;;;2.30;99.90;;;;;;5025081;28;20044;-66
2022/01/21 08:11:26;;;;;;;20.35;3.35;;;2.30;99.90;;;;;;5044610;28;20045;-66
2022/01/21 08:13:52;;;;;;;20.27;3.65;;;2.30;99.90;;;;;;5043145;28;20111;-65
2022/01/21 08:16:19;;;;;;;19.40;3.70;;;2.40;99.90;;;;;;5044446;28;20045;-66
2022/01/21 08:18:45;;;;;;;19.67;4.50;;;2.40;99.90;;;;;;5044030;28;20057;-66
2022/01/21 08:21:18;;;;;;;24.45;3.75;;;2.40;99.90;;;;;;5042740;28;20050;-66
2022/01/21 08:23:51;;;;;;;23.23;3.45;;;2.40;99.90;;;;;;5042432;28;20139;-66
2022/01/21 08:26:24;;;;;;;16.65;3.70;;;2.30;99.90;;;;;;5043203;28;20049;-66
2022/01/21 08:28:51;;;;;;;25.27;4.25;;;2.30;99.90;;;;;;5044013;28;20045;-66
2022/01/21 08:31:17;;;;;;;19.67;3.95;;;2.40;99.90;;;;;;5022088;28;20045;-66
2022/01/21 08:33:43;;;;;;;28.92;3.75;;;2.40;99.90;;;;;;5022922;28;20042;-66
2022/01/21 08:36:10;;;;;;;32.42;4.03;;;2.40;99.90;;;;;;5058354;28;20052;-64
2022/01/21 08:38:36;;;;;;;31.63;3.72;;;2.40;99.90;;;;;;5025858;28;20049;-66
2022/01/21 08:41:02;;;;;;;26.77;4.28;;;2.40;99.90;;;;;;5041817;28;20057;-69
2022/01/21 08:43:28;;;;;;;24.67;3.97;;;2.50;99.90;;;;;;5025934;28;20147;-64
2022/01/21 08:45:54;;;;;;;24.95;4.30;;;2.50;99.90;;;;;;5042489;28;20041;-65
2022/01/21 08:48:19;;;;;;;17.40;3.03;;;2.70;99.90;;;;;;5044270;28;20037;-66
2022/01/21 08:50:45;;;;;;;24.70;5.13;;;2.70;99.90;;;;;;5043206;28;20316;-66
2022/01/21 08:55:56;;;;;;;27.48;5.00;;;2.90;99.90;;;;;;5039438;28;20100;-66
2022/01/21 08:58:23;;;;;;;25.45;4.25;;;3.00;99.90;;;;;;5043804;28;20124;-64
2022/01/21 09:00:49;;;;;;;29.50;4.43;;;3.10;99.90;;;;;;5041429;28;20047;-67
2022/01/21 09:03:15;;;;;;;29.83;4.20;;;3.10;99.90;;;;;;5043493;28;20124;-65
2022/01/21 09:05:41;;;;;;;32.47;4.63;;;3.20;99.90;;;;;;5025966;28;20072;-63
2022/01/21 09:08:06;;;;;;;18.48;3.33;;;3.30;99.90;;;;;;5043877;28;20121;-66
2022/01/21 09:10:32;;;;;;;19.27;3.93;;;3.30;99.90;;;;;;5050237;28;20072;-66
2022/01/21 09:12:58;;;;;;;27.67;3.92;;;3.30;99.90;;;;;;5052404;28;20039;-66
2022/01/21 09:15:25;;;;;;;30.00;6.50;;;3.40;99.90;;;;;;5043330;28;20045;-63
2022/01/21 09:17:52;;;;;;;28.75;4.10;;;3.40;99.90;;;;;;5043359;28;20442;-68
2022/01/21 09:20:18;;;;;;;21.75;4.43;;;3.50;99.90;;;;;;5042695;28;20178;-63
2022/01/21 09:22:44;;;;;;;24.02;5.97;;;3.50;99.90;;;;;;5048407;28;20377;-63
2022/01/21 09:25:09;;;;;;;20.70;3.53;;;3.60;99.90;;;;;;5041916;28;20113;-65
2022/01/21 09:27:36;;;;;;;25.10;4.13;;;3.50;99.90;;;;;;5041600;28;20048;-66
2022/01/21 09:30:05;;;;;;;29.40;3.80;;;3.60;99.90;;;;;;5043234;28;20052;-63
2022/01/21 09:32:32;;;;;;;19.55;4.82;;;3.60;99.90;;;;;;5042731;28;20069;-69
2022/01/21 09:34:58;;;;;;;29.02;5.00;;;3.70;99.90;;;;;;5041232;28;20045;-67
2022/01/21 09:37:24;;;;;;;23.05;3.97;;;3.70;99.90;;;;;;5052275;28;20044;-68
2022/01/21 09:39:50;;;;;;;26.63;4.60;;;3.70;99.90;;;;;;5042053;28;20056;-68
2022/01/21 09:42:16;;;;;;;22.27;4.30;;;3.70;99.90;;;;;;5040791;28;20117;-67
2022/01/21 09:44:44;;;;;;;23.17;4.22;;;3.80;99.90;;;;;;5042658;28;20053;-64
2022/01/21 09:47:14;;;;;;;23.42;4.47;;;3.80;99.90;;;;;;5047955;28;20122;-68
2022/01/21 09:49:42;;;;;;;36.80;5.32;;;3.90;99.90;;;;;;5042521;28;20105;-67
2022/01/21 09:52:11;;;;;;;23.33;3.95;;;4.00;99.90;;;;;;5040757;28;20052;-65
2022/01/21 09:54:38;;;;;;;27.25;4.75;;;4.10;99.90;;;;;;5042267;28;20161;-64
2022/01/21 09:57:07;;;;;;;32.08;5.28;;;4.10;99.90;;;;;;5054466;28;20045;-67
2022/01/21 09:59:35;;;;;;;33.30;5.68;;;4.10;99.90;;;;;;5053614;28;20065;-64
2022/01/21 10:02:04;;;;;;;34.78;4.95;;;4.10;99.90;;;;;;5050821;28;20076;-66
2022/01/21 10:04:32;;;;;;;33.35;4.88;;;4.20;99.90;;;;;;5065763;28;20377;-67
2022/01/21 10:07:00;;;;;;;37.25;4.78;;;4.20;99.90;;;;;;5047214;28;20057;-66
2022/01/21 10:09:26;;;;;;;36.30;4.03;;;4.20;99.90;;;;;;5042345;28;20057;-65
2022/01/21 10:11:53;;;;;;;25.35;5.15;;;4.20;99.90;;;;;;5044857;28;20079;-65
2022/01/21 10:14:24;;;;;;;25.98;4.03;;;4.20;99.90;;;;;;5052445;28;20040;-67
2022/01/21 10:16:50;;;;;;;25.40;4.63;;;4.20;99.90;;;;;;5047105;28;20064;-65
2022/01/21 10:19:27;;;;;;;27.05;4.32;;;4.20;99.90;;;;;;5042754;28;20045;-69
2022/01/21 10:22:12;;;;;;;31.05;5.38;;;4.20;99.90;;;;;;5035027;28;20048;-64
2022/01/21 10:25:01;;;;;;;29.77;4.25;;;4.30;99.90;;;;;;5040648;28;20413;-67
2022/01/21 10:27:45;;;;;;;38.58;5.43;;;4.40;99.90;;;;;;5040407;28;20072;-66
2022/01/21 10:30:22;;;;;;;34.50;4.53;;;4.50;99.90;;;;;;5022722;28;20065;-66
2022/01/21 10:32:48;;;;;;;35.35;4.72;;;4.60;99.90;;;;;;5030186;28;20118;-67
2022/01/21 10:35:31;;;;;;;19.67;3.97;;;4.70;99.90;;;;;;5041042;28;20156;-67
2022/01/21 10:38:28;;;;;;;27.65;4.57;;;4.70;99.90;;;;;;5040353;28;20041;-66
2022/01/21 10:41:03;;;;;;;27.67;4.43;;;4.80;99.90;;;;;;5028115;28;20180;-65
2022/01/21 10:43:29;;;;;;;27.13;3.88;;;4.90;99.90;;;;;;5041097;28;20050;-65
2022/01/21 10:45:57;;;;;;;20.53;3.70;;;4.90;99.90;;;;;;5040948;28;20045;-66
2022/01/21 10:48:24;;;;;;;26.67;4.22;;;4.90;99.90;;;;;;5040612;28;20128;-67
2022/01/21 10:51:15;;;;;;;19.10;3.60;;;5.00;99.90;;;;;;5020441;28;20050;-67
2022/01/21 10:53:43;;;;;;;15.80;3.03;;;5.00;99.90;;;;;;5023057;28;20469;-65
2022/01/21 10:56:17;;;;;;;23.80;4.47;;;5.10;99.90;;;;;;5037438;28;20153;-63
2022/01/21 10:58:52;;;;;;;27.27;5.32;;;5.20;99.90;;;;;;5028809;28;20116;-66
2022/01/21 11:01:22;;;;;;;19.88;4.35;;;5.30;99.90;;;;;;5047600;28;20049;-67
2022/01/21 11:03:56;;;;;;;23.40;4.32;;;5.40;99.90;;;;;;5047061;28;20049;-66
2022/01/21 11:06:24;;;;;;;15.07;3.67;;;5.40;99.90;;;;;;5049154;28;20060;-67
2022/01/21 11:08:50;;;;;;;39.85;4.13;;;5.50;99.90;;;;;;5052195;28;20041;-67
2022/01/21 11:11:25;;;;;;;26.87;3.73;;;5.50;99.90;;;;;;5052598;28;20107;-66
2022/01/21 11:13:51;;;;;;;16.20;3.15;;;5.60;99.90;;;;;;5062245;28;20300;-65
2022/01/21 11:16:24;;;;;;;22.47;3.50;;;5.70;99.90;;;;;;5046047;28;20052;-68
2022/01/21 11:18:57;;;;;;;21.95;3.35;;;5.70;99.90;;;;;;5042131;28;20045;-69
2022/01/21 11:21:36;;;;;;;18.05;3.03;;;5.90;99.90;;;;;;5044360;28;20049;-69
2022/01/21 11:24:07;;;;;;;17.27;3.60;;;6.00;99.90;;;;;;5040543;28;20109;-70
2022/01/21 11:26:32;;;;;;;25.65;4.13;;;6.10;99.90;;;;;;5036037;28;20069;-71
2022/01/21 11:29:00;;;;;;;15.23;3.38;;;6.20;99.90;;;;;;5037704;28;20057;-69
2022/01/21 11:31:28;;;;;;;15.70;3.13;;;6.20;99.90;;;;;;5049435;28;20049;-73
2022/01/21 11:33:55;;;;;;;17.70;3.47;;;6.20;99.90;;;;;;5045249;28;20163;-70
2022/01/21 11:36:21;;;;;;;20.73;3.13;;;6.30;99.90;;;;;;5045435;28;20068;-70
2022/01/21 11:38:48;;;;;;;23.30;3.80;;;6.30;99.90;;;;;;5044818;28;20115;-75
2022/01/21 11:41:15;;;;;;;18.50;3.30;;;6.40;99.90;;;;;;5049557;28;20053;-67
2022/01/21 11:43:49;;;;;;;17.48;3.55;;;6.40;99.90;;;;;;5060084;28;20084;-68
2022/01/21 11:49:00;;;;;;;23.92;3.95;;;6.40;99.90;;;;;;5047087;28;20053;-68
2022/01/21 11:51:28;;;;;;;19.10;3.42;;;6.50;99.90;;;;;;5043418;28;20041;-75
2022/01/21 11:53:58;;;;;;;24.25;3.53;;;6.50;99.90;;;;;;5046031;28;20097;-69
2022/01/21 11:56:47;;;;;;;17.40;2.83;;;6.60;99.90;;;;;;5054850;28;20106;-70
2022/01/21 11:59:37;;;;;;;17.15;3.28;;;6.60;99.90;;;;;;5052818;28;20140;-70
2022/01/21 12:02:14;;;;;;;16.13;2.70;;;6.50;99.90;;;;;;5053072;28;20049;-69
2022/01/21 12:04:44;;;;;;;30.35;3.40;;;6.40;99.90;;;;;;5066151;28;20520;-69
2022/01/21 12:07:33;;;;;;;19.77;3.45;;;6.50;99.90;;;;;;5055377;28;20064;-69
2022/01/21 12:10:07;;;;;;;20.13;3.85;;;6.50;99.90;;;;;;5043778;28;20091;-69
2022/01/21 12:12:50;;;;;;;17.90;3.63;;;6.50;99.90;;;;;;5042820;28;20053;-67
2022/01/21 12:15:28;;;;;;;9.43;2.70;;;6.50;99.90;;;;;;5036878;28;20106;-72
2022/01/21 12:18:10;;;;;;;21.40;3.90;;;6.50;99.90;;;;;;5049109;28;20057;-71
2022/01/21 12:20:36;;;;;;;15.00;3.55;;;6.50;99.90;;;;;;5053872;28;20125;-69
2022/01/21 12:23:19;;;;;;;12.02;2.60;;;6.60;99.90;;;;;;5034779;28;20037;-72
2022/01/21 12:26:18;;;;;;;15.25;2.67;;;6.60;99.90;;;;;;5053064;28;20358;-68
2022/01/21 12:28:45;;;;;;;18.05;2.67;;;6.60;99.90;;;;;;5014072;28;20062;-72
2022/01/21 12:31:13;;;;;;;20.25;3.08;;;6.70;99.90;;;;;;5022139;28;20079;-69
2022/01/21 12:34:12;;;;;;;13.18;2.90;;;6.70;99.90;;;;;;5020503;28;20094;-67
2022/01/21 12:36:36;;;;;;;10.52;3.30;;;6.70;99.90;;;;;;5002249;28;20058;-70
2022/01/21 12:39:24;;;;;;;14.95;3.03;;;6.70;99.90;;;;;;5005135;28;20139;-72
2022/01/21 12:41:50;;;;;;;17.95;4.22;;;6.70;99.90;;;;;;5019109;28;20050;-71
2022/01/21 12:44:30;;;;;;;20.23;3.97;;;6.70;99.90;;;;;;5020193;28;20121;-68
2022/01/21 12:46:57;;;;;;;19.00;3.55;;;6.70;99.90;;;;;;5020045;28;20133;-68
2022/01/21 12:49:33;;;;;;;19.20;2.90;;;6.70;99.90;;;;;;5020437;28;20592;-70
2022/01/21 12:57:30;;;;;;;19.17;3.60;;;6.70;99.90;;;;;;5020822;28;20046;-70
2022/01/21 12:59:59;;;;;;;22.63;3.83;;;6.70;99.90;;;;;;5012012;28;20071;-68
2022/01/21 13:02:29;;;;;;;25.50;3.92;;;6.70;99.90;;;;;;5040510;28;20060;-68
2022/01/21 13:05:17;;;;;;;19.45;3.67;;;6.70;99.90;;;;;;5039610;28;20049;-69
2022/01/21 13:08:18;;;;;;;23.10;4.97;;;6.70;99.90;;;;;;5041386;28;20132;-72
2022/01/21 13:10:45;;;;;;;20.60;3.90;;;6.70;99.90;;;;;;5034655;28;20098;-71
2022/01/21 13:15:52;;;;;;;22.43;3.90;;;6.70;99.90;;;;;;5042657;28;20045;-70
2022/01/21 13:18:26;;;;;;;14.07;3.53;;;6.70;99.90;;;;;;5024429;28;20053;-70
2022/01/21 13:20:55;;;;;;;22.70;3.38;;;6.70;99.90;;;;;;5041094;28;20057;-66
2022/01/21 13:23:58;;;;;;;19.38;3.00;;;6.70;99.90;;;;;;5040986;28;20049;-68
2022/01/21 13:26:36;;;;;;;18.05;3.53;;;6.70;99.90;;;;;;5042704;28;20045;-67
2022/01/21 13:29:10;;;;;;;18.98;3.55;;;6.70;99.90;;;;;;5042399;28;20121;-67
2022/01/21 13:31:54;;;;;;;17.70;3.00;;;6.70;99.90;;;;;;5040604;28;20107;-68
2022/01/21 13:34:39;;;;;;;26.73;4.93;;;6.70;99.90;;;;;;5048581;28;20417;-68
2022/01/21 13:37:07;;;;;;;22.92;3.45;;;6.70;99.90;;;;;;5038515;28;20386;-69
2022/01/21 13:39:41;;;;;;;16.08;4.63;;;6.60;99.90;;;;;;5040320;28;20141;-68
2022/01/21 13:42:12;;;;;;;21.50;3.72;;;6.50;99.90;;;;;;5055989;28;20064;-69
2022/01/21 13:44:52;;;;;;;25.02;3.78;;;6.50;99.90;;;;;;5040298;28;20052;-68
2022/01/21 13:47:25;;;;;;;21.83;5.07;;;6.50;99.90;;;;;;5041991;28;20101;-69
2022/01/21 13:49:52;;;;;;;24.75;4.30;;;6.50;99.90;;;;;;5038352;28;20421;-68
2022/01/21 13:52:17;;;;;;;16.08;3.47;;;6.50;99.90;;;;;;5024234;28;20061;-68
2022/01/21 13:54:50;;;;;;;21.73;3.77;;;6.60;99.90;;;;;;5042488;28;20068;-70
2022/01/21 13:57:25;;;;;;;14.55;2.85;;;6.60;99.90;;;;;;5039308;28;20356;-68
2022/01/21 13:59:51;;;;;;;22.13;3.85;;;6.60;99.90;;;;;;5028533;28;20042;-68
2022/01/21 14:02:18;;;;;;;18.27;3.25;;;6.70;99.90;;;;;;5038862;28;20354;-69